createdAt,value
2018-01-30T00:01:01.918Z,6.26
2018-01-30T00:03:29.394Z,6.26
2018-01-30T00:05:56.866Z,6.27
2018-01-30T00:08:24.366Z,6.30
2018-01-30T00:10:51.823Z,6.30
2018-01-30T00:13:19.300Z,6.26
2018-01-30T00:15:46.785Z,6.28
2018-01-30T00:18:14.260Z,6.22
2018-01-30T00:20:41.719Z,6.21
2018-01-30T00:23:09.194Z,6.21
2018-01-30T00:25:36.649Z,6.26
2018-01-30T00:28:04.122Z,6.25
2018-01-30T00:30:31.583Z,6.27
2018-01-30T00:32:59.058Z,6.31
2018-01-30T00:35:26.519Z,6.40
2018-01-30T00:37:53.996Z,6.49
2018-01-30T00:40:21.459Z,6.43
2018-01-30T00:42:48.950Z,6.38
2018-01-30T00:45:16.410Z,6.32
2018-01-30T00:47:43.898Z,6.25
2018-01-30T00:50:11.354Z,6.18
2018-01-30T00:52:38.826Z,6.22
2018-01-30T00:55:06.291Z,6.22
2018-01-30T00:57:33.746Z,6.23
2018-01-30T01:00:01.227Z,6.27
2018-01-30T01:02:28.678Z,6.24
2018-01-30T01:04:56.152Z,6.25
2018-01-30T01:07:23.698Z,6.22
2018-01-30T01:09:51.182Z,6.06
2018-01-30T01:12:18.650Z,6.05
2018-01-30T01:14:46.135Z,5.92
2018-01-30T01:17:13.606Z,5.93
2018-01-30T01:19:41.091Z,5.88
2018-01-30T01:22:08.560Z,5.97
2018-01-30T01:24:36.046Z,5.93
2018-01-30T01:27:03.502Z,5.96
2018-01-30T01:29:30.978Z,5.93
2018-01-30T01:31:58.434Z,5.91
2018-01-30T01:34:25.908Z,5.91
2018-01-30T01:36:53.396Z,5.93
2018-01-30T01:39:20.875Z,5.88
2018-01-30T01:41:48.326Z,5.81
2018-01-30T01:44:15.798Z,5.75
2018-01-30T01:46:43.252Z,5.65
2018-01-30T01:49:10.787Z,5.67
2018-01-30T01:51:38.254Z,5.60
2018-01-30T01:54:05.730Z,5.53
2018-01-30T01:56:33.195Z,5.44
2018-01-30T01:59:00.681Z,5.37
2018-01-30T02:01:28.151Z,5.28
2018-01-30T02:03:55.631Z,5.30
2018-01-30T02:06:23.096Z,5.28
2018-01-30T02:08:50.575Z,5.31
2018-01-30T02:11:18.022Z,5.27
2018-01-30T02:13:45.507Z,5.20
2018-01-30T02:16:12.971Z,5.18
2018-01-30T02:18:40.430Z,5.12
2018-01-30T02:21:07.915Z,5.07
2018-01-30T02:23:35.371Z,5.01
2018-01-30T02:26:02.856Z,4.96
2018-01-30T02:28:30.314Z,4.99
2018-01-30T02:30:57.787Z,4.98
2018-01-30T02:33:25.251Z,4.93
2018-01-30T02:35:52.723Z,4.90
2018-01-30T02:38:20.183Z,4.83
2018-01-30T02:40:47.664Z,4.77
2018-01-30T02:43:15.126Z,4.71
2018-01-30T02:45:42.609Z,4.70
2018-01-30T02:48:10.075Z,4.75
2018-01-30T02:50:37.567Z,4.73
2018-01-30T02:53:05.032Z,4.66
2018-01-30T02:55:32.505Z,4.65
2018-01-30T02:57:59.967Z,4.63
2018-01-30T03:00:27.447Z,4.49
2018-01-30T03:02:54.902Z,4.42
2018-01-30T03:05:22.386Z,4.46
2018-01-30T03:07:49.842Z,4.52
2018-01-30T03:10:17.324Z,4.53
2018-01-30T03:12:44.834Z,4.53
2018-01-30T03:15:12.286Z,4.50
2018-01-30T03:17:39.747Z,4.49
2018-01-30T03:22:36.432Z,4.68
2018-01-30T03:25:03.919Z,4.74
2018-01-30T03:27:31.380Z,4.76
2018-01-30T03:29:58.887Z,4.73
2018-01-30T03:32:26.351Z,4.63
2018-01-30T03:34:53.830Z,4.62
2018-01-30T03:37:21.298Z,4.65
2018-01-30T03:39:48.756Z,4.53
2018-01-30T03:42:16.234Z,4.42
2018-01-30T03:44:43.705Z,4.39
2018-01-30T03:47:11.179Z,4.32
2018-01-30T03:49:38.638Z,4.32
2018-01-30T03:52:06.119Z,4.33
2018-01-30T03:54:33.579Z,4.36
2018-01-30T03:57:01.066Z,4.64
2018-01-30T03:59:28.530Z,4.73
2018-01-30T04:01:56.010Z,4.83
2018-01-30T04:04:23.470Z,4.77
2018-01-30T04:06:50.946Z,4.73
2018-01-30T04:09:19.327Z,4.66
2018-01-30T04:11:46.806Z,4.65
2018-01-30T04:14:14.262Z,4.66
2018-01-30T04:16:41.761Z,4.69
2018-01-30T04:19:09.226Z,4.72
2018-01-30T04:21:36.762Z,4.75
2018-01-30T04:24:04.268Z,4.78
2018-01-30T04:26:31.781Z,4.74
2018-01-30T04:28:59.255Z,4.77
2018-01-30T04:31:26.738Z,4.90
2018-01-30T04:33:54.195Z,4.94
2018-01-30T04:36:21.675Z,4.95
2018-01-30T04:38:49.138Z,4.93
2018-01-30T04:41:16.614Z,4.90
2018-01-30T04:43:44.079Z,4.85
2018-01-30T04:46:11.555Z,4.80
2018-01-30T04:48:39.018Z,4.82
2018-01-30T04:51:06.493Z,4.85
2018-01-30T04:53:33.955Z,4.84
2018-01-30T04:56:01.434Z,4.90
2018-01-30T04:58:28.890Z,4.99
2018-01-30T05:00:56.387Z,5.09
2018-01-30T05:03:23.850Z,5.17
2018-01-30T05:05:51.302Z,5.17
2018-01-30T05:08:18.799Z,5.25
2018-01-30T05:10:46.257Z,5.31
2018-01-30T05:13:13.737Z,5.26
2018-01-30T05:15:41.202Z,5.29
2018-01-30T05:18:08.676Z,5.27
2018-01-30T05:20:36.138Z,5.34
2018-01-30T05:23:03.614Z,5.30
2018-01-30T05:25:31.078Z,5.29
2018-01-30T05:27:58.566Z,5.27
2018-01-30T05:30:26.032Z,5.26
2018-01-30T05:32:53.507Z,5.27
2018-01-30T05:35:20.978Z,5.31
2018-01-30T05:37:48.458Z,5.29
2018-01-30T05:40:15.921Z,5.28
2018-01-30T05:42:43.406Z,5.28
2018-01-30T05:45:10.872Z,5.26
2018-01-30T05:47:38.356Z,5.23
2018-01-30T05:50:05.860Z,5.18
2018-01-30T05:52:33.379Z,5.15
2018-01-30T05:55:00.819Z,5.08
2018-01-30T05:57:28.303Z,5.11
2018-01-30T05:59:55.770Z,5.07
2018-01-30T06:02:27.974Z,5.06
2018-01-30T06:04:55.437Z,5.02
2018-01-30T06:07:22.916Z,5.01
2018-01-30T06:09:50.374Z,4.95
2018-01-30T06:12:17.855Z,4.94
2018-01-30T06:14:45.322Z,4.92
2018-01-30T06:17:12.808Z,4.93
2018-01-30T06:19:40.281Z,4.91
2018-01-30T06:22:07.774Z,4.93
2018-01-30T06:24:35.234Z,4.88
2018-01-30T06:27:02.724Z,4.89
2018-01-30T06:29:30.255Z,4.81
2018-01-30T06:31:57.716Z,4.76
2018-01-30T06:34:25.255Z,4.73
2018-01-30T06:36:52.715Z,4.69
2018-01-30T06:39:20.199Z,4.66
2018-01-30T06:41:47.658Z,4.58
2018-01-30T06:44:15.138Z,4.50
2018-01-30T06:46:42.613Z,4.39
2018-01-30T06:49:10.098Z,4.27
2018-01-30T06:51:37.591Z,4.06
2018-01-30T06:54:05.075Z,3.97
2018-01-30T06:56:32.545Z,3.85
2018-01-30T06:59:00.029Z,3.87
2018-01-30T07:01:27.491Z,4.00
2018-01-30T07:03:54.966Z,4.15
2018-01-30T07:06:22.427Z,4.09
2018-01-30T07:08:49.909Z,4.14
2018-01-30T07:11:17.379Z,4.06
2018-01-30T07:13:44.855Z,3.99
2018-01-30T07:16:12.307Z,3.92
2018-01-30T07:18:39.786Z,3.87
2018-01-30T07:21:07.242Z,3.78
2018-01-30T07:23:34.723Z,3.70
2018-01-30T07:26:02.183Z,3.64
2018-01-30T07:28:29.669Z,3.61
2018-01-30T07:30:57.127Z,3.65
2018-01-30T07:33:24.599Z,3.73
2018-01-30T07:35:52.054Z,3.66
2018-01-30T07:38:19.547Z,3.69
2018-01-30T07:40:47.021Z,3.74
2018-01-30T07:43:14.511Z,3.54
2018-01-30T07:45:41.970Z,3.46
2018-01-30T07:48:09.463Z,3.55
2018-01-30T07:50:36.919Z,3.63
2018-01-30T07:53:05.370Z,3.64
2018-01-30T07:55:32.851Z,3.64
2018-01-30T07:58:00.307Z,3.76
2018-01-30T08:00:27.798Z,3.69
2018-01-30T08:02:55.255Z,3.79
2018-01-30T08:05:22.730Z,3.86
2018-01-30T08:07:50.196Z,3.90
2018-01-30T08:10:17.703Z,3.99
2018-01-30T08:12:45.166Z,4.05
2018-01-30T08:15:12.651Z,4.17
2018-01-30T08:17:40.112Z,4.15
2018-01-30T08:20:07.596Z,4.18
2018-01-30T08:22:35.055Z,4.30
2018-01-30T08:25:02.530Z,4.33
2018-01-30T08:27:29.990Z,4.49
2018-01-30T08:29:57.472Z,4.57
2018-01-30T08:32:24.943Z,4.68
2018-01-30T08:34:52.426Z,4.75
2018-01-30T08:37:19.882Z,4.85
2018-01-30T08:39:47.454Z,4.90
2018-01-30T08:42:14.915Z,5.00
2018-01-30T08:44:42.382Z,4.97
2018-01-30T08:47:09.847Z,5.03
2018-01-30T08:49:37.365Z,5.04
2018-01-30T08:52:04.851Z,4.96
2018-01-30T08:54:32.359Z,4.99
2018-01-30T08:56:59.814Z,5.12
2018-01-30T08:59:27.307Z,5.14
2018-01-30T09:01:54.762Z,5.08
2018-01-30T09:04:22.242Z,5.15
2018-01-30T09:06:49.723Z,5.16
2018-01-30T09:09:17.202Z,5.26
2018-01-30T09:11:44.673Z,5.31
2018-01-30T09:14:12.143Z,5.37
2018-01-30T09:16:39.603Z,5.36
2018-01-30T09:19:07.070Z,5.35
2018-01-30T09:21:34.563Z,5.44
2018-01-30T09:24:02.045Z,5.48
2018-01-30T09:26:29.530Z,5.64
2018-01-30T09:28:56.987Z,5.81
2018-01-30T09:31:24.462Z,5.83
2018-01-30T09:33:51.944Z,5.96
2018-01-30T09:36:19.439Z,6.01
2018-01-30T09:38:46.906Z,6.15
2018-01-30T09:41:14.413Z,6.12
2018-01-30T09:46:15.766Z,6.10
2018-01-30T09:48:43.219Z,6.21
2018-01-30T09:51:10.686Z,6.29
2018-01-30T09:53:38.175Z,6.20
2018-01-30T09:56:05.669Z,6.36
2018-01-30T09:58:33.127Z,6.36
2018-01-30T10:01:00.635Z,6.38
2018-01-30T10:03:28.089Z,6.42
2018-01-30T10:05:55.599Z,6.46
2018-01-30T10:08:23.048Z,6.52
2018-01-30T10:10:50.522Z,6.60
2018-01-30T10:13:17.985Z,6.65
2018-01-30T10:15:45.463Z,6.76
2018-01-30T10:18:12.918Z,6.79
2018-01-30T10:20:40.399Z,6.85
2018-01-30T10:23:07.870Z,6.89
2018-01-30T10:25:35.347Z,6.83
2018-01-30T10:28:02.807Z,6.81
2018-01-30T10:30:30.279Z,7.00
2018-01-30T10:32:57.732Z,7.03
2018-01-30T10:35:25.198Z,7.19
2018-01-30T10:37:53.212Z,7.28
2018-01-30T10:40:20.718Z,7.41
2018-01-30T10:42:48.171Z,7.32
2018-01-30T10:45:15.695Z,7.33
2018-01-30T10:47:43.231Z,7.40
2018-01-30T10:50:10.703Z,7.47
2018-01-30T10:52:38.174Z,7.44
2018-01-30T10:55:05.623Z,7.58
2018-01-30T10:57:33.110Z,7.63
2018-01-30T11:00:00.583Z,7.72
2018-01-30T11:02:28.082Z,7.88
2018-01-30T11:04:55.596Z,7.93
2018-01-30T11:07:23.042Z,7.97
2018-01-30T11:09:50.498Z,7.78
2018-01-30T11:12:17.967Z,7.92
2018-01-30T11:14:45.423Z,8.17
2018-01-30T11:17:12.894Z,8.19
2018-01-30T11:19:40.347Z,8.23
2018-01-30T11:22:07.855Z,8.49
2018-01-30T11:24:35.301Z,8.52
2018-01-30T11:27:02.767Z,8.12
2018-01-30T11:29:30.214Z,8.38
2018-01-30T11:31:57.684Z,8.45
2018-01-30T11:34:25.163Z,8.60
2018-01-30T11:36:52.639Z,8.60
2018-01-30T11:39:20.099Z,8.81
2018-01-30T11:41:47.569Z,8.73
2018-01-30T11:44:15.026Z,8.69
2018-01-30T11:46:43.111Z,8.53
2018-01-30T11:49:10.567Z,8.77
2018-01-30T11:51:38.044Z,8.73
2018-01-30T11:54:05.490Z,8.81
2018-01-30T11:56:32.970Z,8.80
2018-01-30T11:59:00.414Z,9.15
2018-01-30T12:01:27.887Z,9.38
2018-01-30T12:03:55.444Z,8.96
2018-01-30T12:06:22.895Z,9.28
2018-01-30T12:08:50.381Z,9.43
2018-01-30T12:11:17.843Z,8.60
2018-01-30T12:13:45.320Z,8.94
2018-01-30T12:16:12.770Z,9.45
2018-01-30T12:18:40.250Z,9.18
2018-01-30T12:21:07.705Z,9.44
2018-01-30T12:23:35.177Z,9.22
2018-01-30T12:26:02.691Z,9.37
2018-01-30T12:28:30.171Z,9.66
2018-01-30T12:30:57.630Z,9.41
2018-01-30T12:33:25.103Z,9.44
2018-01-30T12:35:53.655Z,9.45
2018-01-30T12:38:21.143Z,9.50
2018-01-30T12:40:48.601Z,9.63
2018-01-30T12:43:16.076Z,9.51
2018-01-30T12:45:43.531Z,9.84
2018-01-30T12:48:11.003Z,9.79
2018-01-30T12:50:38.463Z,9.55
2018-01-30T12:53:05.939Z,9.42
2018-01-30T12:55:33.399Z,9.69
2018-01-30T12:58:00.864Z,9.74
2018-01-30T13:00:28.321Z,9.67
2018-01-30T13:02:55.791Z,9.30
2018-01-30T13:05:23.244Z,9.64
2018-01-30T13:07:50.715Z,9.58
2018-01-30T13:10:18.175Z,9.72
2018-01-30T13:12:45.647Z,9.44
2018-01-30T13:15:13.098Z,9.92
2018-01-30T13:17:40.571Z,10.28
2018-01-30T13:20:08.027Z,10.09
2018-01-30T13:22:35.513Z,10.13
2018-01-30T13:25:02.974Z,10.46
2018-01-30T13:27:30.455Z,10.68
2018-01-30T13:29:58.760Z,10.17
2018-01-30T13:32:26.296Z,10.06
2018-01-30T13:34:53.812Z,10.31
2018-01-30T13:37:21.266Z,10.45
2018-01-30T13:39:48.739Z,10.42
2018-01-30T13:42:16.196Z,10.36
2018-01-30T13:44:43.691Z,10.35
2018-01-30T13:47:11.155Z,10.49
2018-01-30T13:49:38.635Z,9.38
2018-01-30T13:52:06.151Z,10.17
2018-01-30T13:54:33.629Z,10.23
2018-01-30T13:57:01.091Z,11.04
2018-01-30T13:59:28.558Z,11.46
2018-01-30T14:01:56.022Z,12.14
2018-01-30T14:04:23.500Z,12.71
2018-01-30T14:06:50.998Z,12.59
2018-01-30T14:09:18.468Z,12.60
2018-01-30T14:11:45.926Z,11.63
2018-01-30T14:14:13.407Z,11.89
2018-01-30T14:16:40.886Z,12.85
2018-01-30T14:19:08.363Z,12.32
2018-01-30T14:21:35.855Z,12.77
2018-01-30T14:24:03.337Z,13.42
2018-01-30T14:26:50.243Z,14.36
2018-01-30T14:29:17.819Z,15.08
2018-01-30T14:31:45.319Z,15.40
2018-01-30T14:34:12.838Z,15.07
2018-01-30T14:36:40.409Z,14.51
2018-01-30T14:39:07.894Z,13.16
2018-01-30T14:41:35.443Z,13.36
2018-01-30T14:44:02.966Z,12.68
2018-01-30T14:46:30.422Z,12.61
2018-01-30T14:48:57.998Z,10.67
2018-01-30T14:51:25.503Z,11.68
2018-01-30T14:53:52.978Z,11.18
2018-01-30T14:56:20.434Z,11.60
2018-01-30T14:58:47.914Z,12.08
2018-01-30T15:01:35.494Z,11.86
2018-01-30T15:04:02.990Z,10.52
2018-01-30T15:06:30.539Z,10.95
2018-01-30T15:08:58.114Z,10.73
2018-01-30T15:11:25.579Z,10.12
2018-01-30T15:13:53.051Z,10.16
2018-01-30T15:16:20.541Z,9.72
2018-01-30T15:18:48.239Z,9.17
2018-01-30T15:21:15.741Z,9.24
2018-01-30T15:23:43.301Z,9.36
2018-01-30T15:26:10.771Z,9.42
2018-01-30T15:28:38.282Z,9.32
2018-01-30T15:31:05.763Z,9.08
2018-01-30T15:33:33.242Z,8.74
2018-01-30T15:36:00.823Z,8.73
2018-01-30T15:38:28.297Z,8.75
2018-01-30T15:40:55.911Z,8.65
2018-01-30T15:43:23.399Z,8.50
2018-01-30T15:45:50.946Z,8.39
2018-01-30T15:48:18.410Z,8.36
2018-01-30T15:51:02.426Z,8.37
2018-01-30T15:53:31.834Z,8.26
2018-01-30T15:55:59.316Z,8.11
2018-01-30T15:58:26.767Z,7.93
2018-01-30T16:00:54.261Z,7.84
2018-01-30T16:03:21.758Z,7.71
2018-01-30T16:05:49.269Z,7.67
2018-01-30T16:08:16.811Z,7.58
2018-01-30T16:10:44.287Z,7.49
2018-01-30T16:13:11.771Z,7.33
2018-01-30T16:15:39.362Z,7.21
2018-01-30T16:18:06.949Z,7.10
2018-01-30T16:20:34.444Z,6.97
2018-01-30T16:23:01.937Z,6.86
2018-01-30T16:25:29.426Z,6.68
2018-01-30T16:27:56.899Z,6.62
2018-01-30T16:30:24.455Z,6.57
2018-01-30T16:32:51.911Z,6.54
2018-01-30T16:35:19.385Z,6.46
2018-01-30T16:37:46.842Z,6.43
2018-01-30T16:40:14.339Z,6.45
2018-01-30T16:42:41.854Z,6.31
2018-01-30T16:45:09.350Z,6.18
2018-01-30T16:47:53.572Z,6.09
2018-01-30T16:50:27.630Z,6.16
2018-01-30T16:52:55.155Z,6.13
2018-01-30T16:55:22.668Z,6.15
2018-01-30T16:57:50.183Z,6.11
2018-01-30T17:00:17.628Z,6.12
2018-01-30T17:02:45.155Z,6.06
2018-01-30T17:05:12.612Z,6.02
2018-01-30T17:07:40.153Z,6.02
2018-01-30T17:10:07.746Z,6.05
2018-01-30T17:12:35.271Z,6.10
2018-01-30T17:15:03.167Z,6.18
2018-01-30T17:17:30.727Z,6.21
2018-01-30T17:19:58.308Z,6.23
2018-01-30T17:25:05.266Z,6.21
2018-01-30T17:30:18.851Z,6.10
2018-01-30T17:32:59.830Z,5.96
2018-01-30T17:38:13.452Z,5.92
2018-01-30T17:49:54.396Z,6.00
2018-01-30T17:52:46.224Z,6.04
2018-01-30T17:55:13.686Z,6.05
2018-01-30T17:57:41.178Z,6.01
2018-01-30T18:00:08.630Z,6.00
2018-01-30T18:02:36.109Z,6.02
2018-01-30T18:05:03.566Z,6.04
2018-01-30T18:07:31.048Z,6.11
2018-01-30T18:09:58.508Z,6.27
2018-01-30T18:12:25.992Z,6.36
2018-01-30T18:14:53.475Z,6.33
2018-01-30T18:17:20.955Z,6.34
2018-01-30T18:19:48.426Z,6.38
2018-01-30T18:22:15.910Z,6.42
2018-01-30T18:24:43.366Z,6.41
2018-01-30T18:27:10.846Z,6.41
2018-01-30T18:29:38.294Z,6.46
2018-01-30T18:32:05.763Z,6.51
2018-01-30T18:34:33.211Z,6.61
2018-01-30T18:37:01.292Z,6.79
2018-01-30T18:39:28.899Z,6.73
2018-01-30T18:41:56.468Z,6.64
2018-01-30T18:44:24.022Z,6.53
2018-01-30T18:46:51.664Z,6.52
2018-01-30T18:49:19.202Z,6.58
2018-01-30T18:51:46.749Z,6.53
2018-01-30T18:54:14.371Z,6.59
2018-01-30T18:56:42.620Z,6.54
2018-01-30T18:59:10.161Z,6.53
2018-01-30T19:10:39.663Z,6.53
2018-01-30T19:13:07.206Z,6.50
2018-01-30T19:18:27.299Z,6.37
2018-01-30T19:26:59.838Z,6.32
2018-01-30T19:35:42.538Z,5.92
2018-01-30T19:38:12.220Z,5.90
2018-01-30T19:40:48.865Z,5.80
2018-01-30T19:45:57.325Z,5.70
2018-01-30T19:48:25.789Z,5.65
2018-01-30T19:50:53.351Z,5.50
2018-01-30T19:53:23.724Z,5.41
2018-01-30T19:58:38.033Z,5.62
2018-01-30T20:03:46.899Z,5.49
2018-01-30T20:06:14.355Z,5.31
2018-01-30T20:14:36.569Z,5.21
2018-01-30T20:19:56.712Z,5.25
2018-01-30T20:22:24.174Z,5.02
2018-01-30T20:24:51.658Z,4.96
2018-01-30T20:27:19.115Z,4.99
2018-01-30T20:29:46.607Z,5.11
2018-01-30T20:32:14.066Z,5.24
2018-01-30T20:34:41.560Z,5.17
2018-01-30T20:37:14.548Z,5.10
2018-01-30T20:39:42.027Z,5.07
2018-01-30T20:42:09.487Z,5.07
2018-01-30T20:44:36.963Z,5.09
2018-01-30T20:47:04.434Z,5.07
2018-01-30T20:49:31.926Z,4.95
2018-01-30T20:51:59.382Z,4.91
2018-01-30T20:54:26.881Z,4.88
2018-01-30T20:56:54.346Z,5.04
2018-01-30T20:59:21.883Z,4.82
2018-01-30T21:01:49.362Z,4.72
2018-01-30T21:04:16.847Z,4.65
2018-01-30T21:06:44.334Z,4.66
2018-01-30T21:09:11.884Z,4.76
2018-01-30T21:11:39.352Z,4.93
2018-01-30T21:14:06.830Z,5.02
2018-01-30T21:16:34.298Z,5.11
2018-01-30T21:19:01.773Z,5.23
2018-01-30T21:21:29.235Z,5.35
2018-01-30T21:23:56.753Z,5.45
2018-01-30T21:26:24.206Z,5.60
2018-01-30T21:28:51.677Z,5.67
2018-01-30T21:31:19.155Z,5.59
2018-01-30T21:33:46.624Z,5.54
2018-01-30T21:36:14.107Z,5.58
2018-01-30T21:38:41.562Z,5.63
2018-01-30T21:41:09.039Z,5.64
2018-01-30T21:43:36.495Z,5.91
2018-01-30T21:46:03.975Z,5.82
2018-01-30T21:48:31.447Z,5.85
2018-01-30T21:50:58.930Z,5.70
2018-01-30T21:53:26.391Z,5.71
2018-01-30T21:55:53.868Z,5.86
2018-01-30T21:58:21.395Z,5.92
2018-01-30T22:00:48.917Z,6.00
2018-01-30T22:03:16.354Z,6.04
2018-01-30T22:05:43.827Z,6.03
2018-01-30T22:08:11.393Z,5.98
2018-01-30T22:10:38.794Z,6.21
2018-01-30T22:13:06.250Z,6.26
2018-01-30T22:15:33.732Z,6.33
2018-01-30T22:18:01.182Z,6.34
2018-01-30T22:20:28.659Z,6.33
2018-01-30T22:22:56.114Z,6.25
2018-01-30T22:25:23.598Z,6.33
2018-01-30T22:27:51.054Z,6.27
2018-01-30T22:30:18.539Z,6.25
2018-01-30T22:32:45.999Z,6.18
2018-01-30T22:35:13.479Z,6.03
2018-01-30T22:37:40.941Z,5.93
2018-01-30T22:40:08.419Z,6.00
2018-01-30T22:42:35.879Z,6.07
2018-01-30T22:45:03.370Z,6.10
